.
WxDataArchive / Data Records for 2015-12-03
2015-12-02 December 2015 2015-12-04

Data Records for Thursday, 03 December 2015

Time	Temp	Chill	HIndex	Humid	Dewpt	 Wind 	HiWind	WindDir	Rain 	Barom
-----	----	-----	------	-----	-----	------	------	-------	-----	-----
00:00	32.7	32.7	32.7	88	29.5	1	3	248	0.00	29.952 
00:05	32.7	32.7	32.7	88	29.5	0	3	248	0.00	29.952 
00:10	32.7	32.7	32.7	88	29.5	1	3	248	0.00	29.952 
00:15	32.8	32.8	32.8	88	29.6	1	3	248	0.00	29.956 
00:20	32.8	32.8	32.8	88	29.6	0	3	248	0.00	29.956 
00:25	32.8	32.8	32.8	88	29.6	0	3	248	0.00	29.956 
00:30	32.8	32.8	32.8	88	29.6	1	3	248	0.00	29.962 
00:35	32.8	32.8	32.8	88	29.6	0	2	248	0.00	29.962 
00:40	32.8	32.8	32.8	88	29.6	0	1	248	0.00	29.962 
00:45	32.7	32.7	32.7	89	29.8	0	3	248	0.00	29.968 
00:50	32.7	32.7	32.7	89	29.8	0	1	248	0.00	29.968 
00:55	32.5	32.5	32.5	89	29.6	1	3	248	0.00	29.968 
01:00	32.5	32.5	32.5	89	29.6	0	2	248	0.00	29.970 
01:05	32.5	32.5	32.5	90	29.9	0	3	248	0.00	29.970 
01:10	32.5	32.5	32.5	90	29.9	0	3	248	0.00	29.970 
01:15	32.5	32.5	32.5	90	29.9	0	3	248	0.00	29.966 
01:20	32.4	32.4	32.4	90	29.8	0	2	248	0.00	29.966 
01:25	32.4	32.4	32.4	90	29.8	0	3	248	0.00	29.966 
01:30	32.4	32.4	32.4	90	29.8	0	4	248	0.00	29.973 
01:35	32.4	32.4	32.4	90	29.8	1	3	248	0.00	29.973 
01:40	32.4	32.4	32.4	90	29.8	1	3	248	0.00	29.973 
01:45	32.2	32.2	32.2	90	29.6	1	4	248	0.00	29.976 
01:50	32.2	32.2	32.2	90	29.6	0	2	248	0.00	29.976 
01:55	32.2	32.2	32.2	90	29.6	1	4	248	0.00	29.976 
02:00	32.2	32.2	32.2	90	29.6	0	2	248	0.00	29.981 
02:05	32.2	32.2	32.2	90	29.6	1	3	248	0.00	29.981 
02:10	32.2	32.2	32.2	90	29.6	1	3	248	0.00	29.981 
02:15	32.2	32.2	32.2	90	29.6	1	2	248	0.00	29.986 
02:20	32.4	32.4	32.4	90	29.8	1	4	248	0.00	29.986 
02:25	32.4	32.4	32.4	89	29.5	2	4	248	0.00	29.986 
02:30	32.5	32.5	32.5	89	29.6	0	2	248	0.00	29.994 
02:35	32.5	32.5	32.5	89	29.6	1	3	248	0.00	29.994 
02:40	32.7	32.7	32.7	89	29.8	0	2	248	0.00	29.994 
02:45	32.7	32.7	32.7	88	29.5	0	2	248	0.00	30.004 
02:50	32.8	32.8	32.8	88	29.6	0	2	248	0.00	30.004 
02:55	32.8	32.8	32.8	88	29.6	0	2	248	0.00	30.004 
03:00	32.9	32.9	32.9	88	29.7	1	3	248	0.00	30.013 
03:05	32.9	32.9	32.9	88	29.7	1	3	248	0.00	30.013 
03:10	33.1	33.1	33.1	88	29.9	0	2	248	0.00	30.013 
03:15	33.1	33.1	33.1	87	29.7	0	2	248	0.00	30.026 
03:20	33.2	33.2	33.2	87	29.8	1	2	248	0.00	30.026 
03:25	33.4	33.4	33.4	87	30.0	1	3	248	0.00	30.026 
03:30	33.5	33.5	33.5	87	30.1	1	3	248	0.00	30.034 
03:35	33.5	33.5	33.5	87	30.1	1	4	248	0.00	30.034 
03:40	33.7	33.7	33.7	86	30.0	1	3	248	0.00	30.034 
03:45	33.7	33.7	33.7	86	30.0	0	3	248	0.00	30.044 
03:50	33.7	33.7	33.7	86	30.0	1	3	248	0.00	30.044 
03:55	33.7	33.7	33.7	86	30.0	1	4	248	0.00	30.044 
04:00	33.7	33.7	33.7	86	30.0	1	3	248	0.00	30.049 
04:05	33.8	33.8	33.8	86	30.1	1	2	248	0.00	30.049 
04:10	33.8	33.8	33.8	86	30.1	0	2	248	0.00	30.049 
04:15	33.8	33.8	33.8	86	30.1	1	5	292	0.00	30.054 
04:20	33.8	33.8	33.8	86	30.1	1	2	292	0.00	30.054 
04:25	33.8	33.8	33.8	86	30.1	1	3	292	0.00	30.054 
04:30	33.8	33.8	33.8	86	30.1	1	3	292	0.00	30.063 
04:35	33.8	33.8	33.8	86	30.1	1	2	292	0.00	30.063 
04:40	33.8	33.8	33.8	87	30.3	1	3	292	0.00	30.063 
04:45	33.8	33.8	33.8	87	30.3	1	4	292	0.00	30.064 
04:50	34.0	34.0	34.0	87	30.5	1	2	292	0.00	30.064 
04:55	34.0	34.0	34.0	87	30.5	0	3	292	0.00	30.064 
05:00	34.0	34.0	34.0	87	30.5	0	2	292	0.00	30.068 
05:05	34.0	34.0	34.0	87	30.5	0	3	292	0.00	30.068 
05:10	34.0	34.0	34.0	87	30.5	0	2	292	0.00	30.068 
05:15	34.0	34.0	34.0	87	30.5	0	3	292	0.00	30.071 
05:20	34.1	34.1	34.1	87	30.6	0	2	292	0.01	30.071 
05:25	34.1	34.1	34.1	87	30.6	0	2	292	0.00	30.071 
05:30	34.1	34.1	34.1	88	30.9	0	1	292	0.00	30.084 
05:35	34.3	34.3	34.3	88	31.1	0	2	292	0.00	30.084 
05:40	34.3	34.3	34.3	88	31.1	0	2	292	0.00	30.084 
05:45	34.3	34.3	34.3	88	31.1	0	1	292	0.00	30.097 
05:50	34.4	34.4	34.4	88	31.2	0	3	292	0.00	30.097 
05:55	34.6	34.6	34.6	88	31.4	0	2	292	0.00	30.097 
06:00	34.6	34.6	34.6	88	31.4	0	2	292	0.00	30.107 
06:05	34.6	34.6	34.6	88	31.4	0	2	292	0.00	30.107 
06:10	34.7	34.7	34.7	88	31.5	0	2	292	0.00	30.107 
06:15	34.9	34.9	34.9	88	31.7	1	3	292	0.00	30.115 
06:20	35.2	35.2	35.2	88	32.0	0	2	292	0.00	30.115 
06:25	35.2	35.2	35.2	88	32.0	0	2	292	0.00	30.115 
06:30	35.2	35.2	35.2	88	32.0	0	1	292	0.00	30.123 
06:35	35.2	35.2	35.2	88	32.0	0	1	292	0.00	30.123 
06:40	35.2	35.2	35.2	88	32.0	0	1	292	0.00	30.123 
06:45	35.0	35.0	35.0	88	31.8	0	3	292	0.00	30.133 
06:50	35.0	35.0	35.0	88	31.8	0	2	292	0.00	30.133 
06:55	34.9	34.9	34.9	88	31.7	0	1	292	0.00	30.133 
07:00	34.9	34.9	34.9	88	31.7	0	1	292	0.00	30.149 
07:05	34.7	34.7	34.7	88	31.5	0	2	292	0.00	30.149 
07:10	34.6	34.6	34.6	88	31.4	0	2	292	0.00	30.149 
07:15	34.4	34.4	34.4	88	31.2	0	1	292	0.00	30.162 
07:20	34.3	34.3	34.3	88	31.1	0	2	292	0.00	30.162 
07:25	34.3	34.3	34.3	88	31.1	0	2	292	0.00	30.162 
07:30	34.3	34.3	34.3	88	31.1	0	2	292	0.00	30.170 
07:35	34.3	34.3	34.3	88	31.1	0	1	292	0.00	30.170 
07:40	34.4	34.4	34.4	88	31.2	0	2	292	0.00	30.170 
07:45	34.4	34.4	34.4	88	31.2	0	2	292	0.00	30.179 
07:50	34.4	34.4	34.4	88	31.2	0	1	292	0.00	30.179 
07:55	34.3	34.3	34.3	88	31.1	0	2	292	0.00	30.179 
08:00	34.3	34.3	34.3	88	31.1	0	1	292	0.00	30.181 
08:05	34.4	34.4	34.4	88	31.2	0	1	292	0.00	30.181 
08:10	34.4	34.4	34.4	88	31.2	0	2	292	0.00	30.181 
08:15	34.4	34.4	34.4	88	31.2	0	3	292	0.00	30.192 
08:20	34.4	34.4	34.4	88	31.2	0	2	292	0.00	30.192 
08:25	34.4	34.4	34.4	88	31.2	0	1	292	0.00	30.192 
08:30	34.6	34.6	34.6	87	31.1	0	2	292	0.00	30.196 
08:35	34.6	34.6	34.6	87	31.1	0	1	292	0.00	30.196 
08:40	34.6	34.6	34.6	87	31.1	0	1	292	0.00	30.196 
08:45	34.6	34.6	34.6	87	31.1	0	1	292	0.00	30.202 
08:50	34.6	34.6	34.6	87	31.1	0	1	292	0.00	30.202 
08:55	34.4	34.4	34.4	87	30.9	0	1	292	0.00	30.202 
09:00	34.4	34.4	34.4	87	30.9	0	1	292	0.00	30.210 
09:05	34.3	34.3	34.3	87	30.8	0	1	292	0.00	30.210 
09:10	34.4	34.4	34.4	87	30.9	0	3	248	0.00	30.210 
09:15	34.4	34.4	34.4	87	30.9	0	2	248	0.00	30.221 
09:20	34.6	34.6	34.6	87	31.1	0	2	248	0.00	30.221 
09:25	35.0	35.0	35.0	87	31.5	0	2	248	0.00	30.221 
09:30	35.3	35.3	35.3	86	31.5	0	2	248	0.00	30.227 
09:35	35.2	35.2	35.2	86	31.4	0	2	248	0.00	30.227 
09:40	35.2	35.2	35.2	85	31.2	0	2	248	0.00	30.227 
09:45	35.2	35.2	35.2	85	31.2	0	3	248	0.00	30.235 
09:50	35.3	35.3	35.3	86	31.5	0	1	248	0.00	30.235 
09:55	35.3	35.3	35.3	85	31.2	0	1	248	0.00	30.235 
10:00	35.5	35.5	35.5	85	31.4	1	2	248	0.00	30.240 
10:05	35.6	35.6	35.6	85	31.5	0	2	248	0.00	30.240 
10:10	35.9	35.9	35.9	85	31.8	1	2	248	0.00	30.240 
10:15	36.0	36.0	36.0	84	31.6	1	3	248	0.00	30.243 
10:20	36.3	36.3	36.3	84	31.9	1	3	248	0.00	30.243 
10:25	36.8	36.8	36.8	84	32.4	0	3	248	0.00	30.243 
10:30	36.9	36.9	36.9	83	32.2	1	3	248	0.00	30.250 
10:35	37.0	37.0	37.0	83	32.3	1	4	248	0.00	30.250 
10:40	37.2	37.2	37.2	82	32.2	2	4	315	0.00	30.250 
10:45	37.2	37.2	37.2	82	32.2	1	3	315	0.00	30.255 
10:50	37.5	37.5	37.5	82	32.5	1	4	315	0.00	30.255 
10:55	37.8	37.8	37.8	81	32.5	2	5	292	0.00	30.255 
11:00	38.0	38.0	38.0	81	32.7	1	3	315	0.00	30.255 
11:05	38.3	38.3	38.3	80	32.7	1	4	270	0.00	30.255 
11:10	38.8	38.8	38.8	80	33.2	1	3	270	0.00	30.255 
11:15	38.8	38.8	38.8	79	32.9	1	4	270	0.00	30.265 
11:20	39.2	39.2	39.2	79	33.2	1	4	248	0.00	30.265 
11:25	39.2	39.2	39.2	78	32.9	2	7	292	0.00	30.265 
11:30	39.8	39.8	39.8	78	33.5	1	3	292	0.00	30.268 
11:35	39.9	39.9	39.9	76	33.0	2	4	292	0.00	30.268 
11:40	39.9	39.9	39.9	76	33.0	1	4	315	0.00	30.268 
11:45	39.5	39.5	39.5	75	32.2	2	7	292	0.00	30.271 
11:50	39.3	39.3	39.3	74	31.7	2	4	270	0.00	30.271 
11:55	39.3	39.3	39.3	74	31.7	1	4	292	0.00	30.271 
12:00	39.5	39.5	39.5	74	31.9	0	2	338	0.00	30.270 
12:05	39.8	39.8	39.8	73	31.9	1	3	338	0.00	30.270 
12:10	39.9	39.9	39.9	72	31.6	1	3	338	0.00	30.270 
12:15	40.1	40.1	40.1	71	31.5	1	3	315	0.00	30.269 
12:20	40.5	40.5	40.5	70	31.5	0	2	292	0.00	30.269 
12:25	40.9	40.9	40.9	70	31.9	1	3	248	0.00	30.269 
12:30	41.2	41.2	41.2	70	32.2	0	2	270	0.00	30.266 
12:35	41.5	41.5	41.5	70	32.5	1	4	270	0.00	30.266 
12:40	41.6	41.6	41.6	69	32.2	1	4	270	0.00	30.266 
12:45	41.8	41.8	41.8	68	32.0	1	4	270	0.00	30.264 
12:50	42.1	42.1	42.1	68	32.3	1	4	248	0.00	30.264 
12:55	41.8	41.8	41.8	67	31.7	1	3	270	0.00	30.264 
13:00	41.6	41.6	41.6	69	32.2	1	4	270	0.00	30.265 
13:05	41.8	41.8	41.8	69	32.4	1	3	248	0.00	30.265 
13:10	41.5	41.5	41.5	69	32.1	0	3	248	0.00	30.265 
13:15	41.6	41.6	41.6	70	32.6	1	2	248	0.00	30.266 
13:20	41.5	41.5	41.5	70	32.5	1	5	270	0.00	30.266 
13:25	41.3	41.3	41.3	70	32.3	1	4	248	0.00	30.266 
13:30	41.2	41.2	41.2	71	32.5	1	3	248	0.00	30.269 
13:35	41.3	41.3	41.3	71	32.6	1	3	248	0.00	30.269 
13:40	41.6	41.6	41.6	71	32.9	1	3	248	0.00	30.269 
13:45	41.8	41.8	41.8	70	32.7	1	3	248	0.00	30.271 
13:50	41.8	41.8	41.8	70	32.7	1	3	248	0.00	30.271 
13:55	41.8	41.8	41.8	70	32.7	0	3	248	0.00	30.271 
14:00	41.8	41.8	41.8	70	32.7	1	3	248	0.00	30.277 
14:05	41.8	41.8	41.8	70	32.7	1	3	248	0.00	30.277 
14:10	41.6	41.6	41.6	70	32.6	1	3	248	0.00	30.277 
14:15	41.8	41.8	41.8	70	32.7	1	3	248	0.00	30.281 
14:20	41.8	41.8	41.8	69	32.4	1	2	248	0.00	30.281 
14:25	41.8	41.8	41.8	69	32.4	1	2	248	0.00	30.281 
14:30	41.8	41.8	41.8	70	32.7	0	1	248	0.00	30.282 
14:35	41.9	41.9	41.9	69	32.5	1	3	248	0.00	30.282 
14:40	41.8	41.8	41.8	69	32.4	1	4	248	0.00	30.282 
14:45	41.9	41.9	41.9	70	32.8	0	1	248	0.00	30.282 
14:50	42.1	42.1	42.1	70	33.0	0	3	248	0.00	30.282 
14:55	41.9	41.9	41.9	69	32.5	1	5	292	0.00	30.282 
15:00	42.1	42.1	42.1	69	32.7	0	2	292	0.00	30.285 
15:05	42.1	42.1	42.1	69	32.7	0	2	292	0.00	30.285 
15:10	42.1	42.1	42.1	69	32.7	1	3	292	0.00	30.285 
15:15	42.1	42.1	42.1	69	32.7	1	4	292	0.00	30.284 
15:20	42.1	42.1	42.1	69	32.7	2	4	292	0.00	30.284 
15:25	41.9	41.9	41.9	69	32.5	1	3	315	0.00	30.284 
15:30	41.9	41.9	41.9	70	32.8	0	2	315	0.00	30.284 
15:35	41.9	41.9	41.9	70	32.8	1	5	315	0.00	30.284 
15:40	41.9	41.9	41.9	70	32.8	1	3	315	0.00	30.284 
15:45	41.9	41.9	41.9	70	32.8	0	2	315	0.00	30.294 
15:50	41.9	41.9	41.9	70	32.8	1	3	315	0.00	30.294 
15:55	41.8	41.8	41.8	69	32.4	1	3	315	0.00	30.294 
16:00	41.8	41.8	41.8	70	32.7	1	3	292	0.00	30.296 
16:05	41.8	41.8	41.8	70	32.7	0	3	292	0.00	30.296 
16:10	41.8	41.8	41.8	70	32.7	1	2	292	0.00	30.296 
16:15	41.6	41.6	41.6	70	32.6	0	2	292	0.00	30.301 
16:20	41.6	41.6	41.6	70	32.6	1	3	292	0.00	30.301 
16:25	41.6	41.6	41.6	71	32.9	0	1	292	0.00	30.301 
16:30	41.6	41.6	41.6	71	32.9	0	1	292	0.00	30.307 
16:35	41.6	41.6	41.6	71	32.9	0	1	292	0.00	30.307 
16:40	41.5	41.5	41.5	71	32.8	0	1	292	0.00	30.307 
16:45	41.3	41.3	41.3	71	32.6	1	3	292	0.00	30.312 
16:50	41.2	41.2	41.2	71	32.5	1	3	292	0.00	30.312 
16:55	41.1	41.1	41.1	72	32.8	0	2	292	0.00	30.312 
17:00	40.9	40.9	40.9	72	32.6	1	3	292	0.00	30.325 
17:05	40.8	40.8	40.8	73	32.8	0	3	292	0.00	30.325 
17:10	40.6	40.6	40.6	73	32.6	0	2	292	0.00	30.325 
17:15	40.5	40.5	40.5	73	32.5	1	3	292	0.00	30.328 
17:20	40.5	40.5	40.5	74	32.9	0	2	292	0.00	30.328 
17:25	40.3	40.3	40.3	74	32.7	0	1	292	0.00	30.328 
17:30	40.2	40.2	40.2	75	32.9	0	3	292	0.00	30.336 
17:35	40.1	40.1	40.1	76	33.2	0	2	292	0.00	30.336 
17:40	39.9	39.9	39.9	76	33.0	1	3	292	0.00	30.336 
17:45	39.6	39.6	39.6	76	32.7	1	3	292	0.00	30.341 
17:50	39.5	39.5	39.5	77	32.9	1	3	292	0.00	30.341 
17:55	39.3	39.3	39.3	77	32.7	0	3	292	0.00	30.341 
18:00	39.2	39.2	39.2	77	32.6	1	3	292	0.00	30.342 
18:05	39.1	39.1	39.1	78	32.8	0	2	292	0.00	30.342 
18:10	38.9	38.9	38.9	78	32.6	0	1	292	0.00	30.342 
18:15	38.8	38.8	38.8	78	32.5	0	2	292	0.00	30.344 
18:20	38.8	38.8	38.8	78	32.5	0	2	292	0.00	30.344 
18:25	38.6	38.6	38.6	78	32.3	0	2	292	0.00	30.344 
18:30	38.6	38.6	38.6	78	32.3	0	3	292	0.00	30.344 
18:35	38.5	38.5	38.5	77	31.9	0	2	292	0.00	30.344 
18:40	38.3	38.3	38.3	77	31.7	0	1	292	0.00	30.344 
18:45	38.2	38.2	38.2	77	31.6	0	2	292	0.00	30.349 
18:50	38.0	38.0	38.0	77	31.4	0	1	292	0.00	30.349 
18:55	38.0	38.0	38.0	77	31.4	0	3	292	0.00	30.349 
19:00	37.9	37.9	37.9	77	31.3	1	3	292	0.00	30.359 
19:05	37.8	37.8	37.8	77	31.2	1	3	270	0.00	30.359 
19:10	37.8	37.8	37.8	77	31.2	1	5	248	0.00	30.359 
19:15	37.6	37.6	37.6	77	31.1	1	4	248	0.00	30.364 
19:20	37.6	37.6	37.6	76	30.7	1	3	248	0.00	30.364 
19:25	37.5	37.5	37.5	76	30.6	0	3	248	0.00	30.364 
19:30	37.5	37.5	37.5	75	30.3	1	3	248	0.00	30.374 
19:35	37.3	37.3	37.3	75	30.1	0	3	248	0.00	30.374 
19:40	37.3	37.3	37.3	75	30.1	0	3	248	0.00	30.374 
19:45	37.3	37.3	37.3	76	30.4	1	4	248	0.00	30.378 
19:50	37.2	37.2	37.2	76	30.3	1	4	248	0.00	30.378 
19:55	37.0	37.0	37.0	76	30.2	1	3	270	0.00	30.378 
20:00	36.9	36.9	36.9	76	30.1	0	2	270	0.00	30.383 
20:05	36.6	36.6	36.6	76	29.8	1	4	270	0.00	30.383 
20:10	36.5	36.5	36.5	76	29.7	1	4	270	0.00	30.383 
20:15	36.2	36.2	36.2	76	29.4	0	2	248	0.00	30.385 
20:20	36.0	36.0	36.0	76	29.2	1	3	248	0.00	30.385 
20:25	36.0	36.0	36.0	77	29.5	0	3	248	0.00	30.385 
20:30	35.9	35.9	35.9	77	29.4	0	2	248	0.00	30.385 
20:35	35.9	35.9	35.9	77	29.4	0	1	248	0.00	30.385 
20:40	35.9	35.9	35.9	77	29.4	0	1	248	0.00	30.385 
20:45	35.9	35.9	35.9	77	29.4	0	1	248	0.00	30.389 
20:50	36.0	36.0	36.0	77	29.5	0	1	248	0.00	30.389 
20:55	36.0	36.0	36.0	77	29.5	0	2	248	0.00	30.389 
21:00	36.0	36.0	36.0	78	29.8	0	2	248	0.00	30.390 
21:05	36.0	36.0	36.0	78	29.8	0	3	248	0.00	30.390 
21:10	36.0	36.0	36.0	77	29.5	0	4	248	0.00	30.390 
21:15	36.0	36.0	36.0	77	29.5	0	2	248	0.00	30.386 
21:20	36.0	36.0	36.0	78	29.8	0	4	248	0.00	30.386 
21:25	36.0	36.0	36.0	78	29.8	1	4	248	0.00	30.386 
21:30	36.0	36.0	36.0	78	29.8	0	2	248	0.00	30.386 
21:35	36.0	36.0	36.0	78	29.8	0	1	248	0.00	30.386 
21:40	36.0	36.0	36.0	78	29.8	0	2	248	0.00	30.386 
21:45	36.0	36.0	36.0	78	29.8	0	2	248	0.00	30.390 
21:50	36.0	36.0	36.0	78	29.8	0	3	248	0.00	30.390 
21:55	36.0	36.0	36.0	79	30.1	0	3	248	0.00	30.390 
22:00	35.9	35.9	35.9	79	30.0	1	3	248	0.00	30.393 
22:05	35.9	35.9	35.9	79	30.0	0	2	248	0.00	30.393 
22:10	35.8	35.8	35.8	79	29.9	1	4	248	0.00	30.393 
22:15	35.5	35.5	35.5	80	30.0	1	3	270	0.00	30.390 
22:20	35.3	35.3	35.3	80	29.8	0	2	270	0.00	30.390 
22:25	35.2	35.2	35.2	81	30.0	1	3	270	0.00	30.390 
22:30	35.0	35.0	35.0	81	29.8	1	4	270	0.00	30.394 
22:35	34.7	34.7	34.7	81	29.5	1	3	292	0.00	30.394 
22:40	34.4	34.4	34.4	81	29.2	1	5	270	0.00	30.394 
22:45	34.1	34.1	34.1	82	29.2	1	6	270	0.00	30.393 
22:50	34.1	34.1	34.1	82	29.2	0	2	270	0.00	30.393 
22:55	34.0	34.0	34.0	83	29.4	0	2	270	0.00	30.393 
23:00	34.0	34.0	34.0	83	29.4	1	3	270	0.00	30.389 
23:05	33.8	33.8	33.8	83	29.2	1	4	270	0.00	30.389 
23:10	33.8	33.8	33.8	84	29.5	0	2	270	0.00	30.389 
23:15	33.8	33.8	33.8	84	29.5	1	4	270	0.00	30.392 
23:20	33.7	33.7	33.7	84	29.4	1	3	270	0.00	30.392 
23:25	33.5	33.5	33.5	84	29.2	1	4	270	0.00	30.392 
23:30	33.4	33.4	33.4	84	29.1	1	4	248	0.00	30.401 
23:35	33.2	33.2	33.2	84	28.9	0	3	248	0.00	30.401 
23:40	33.2	33.2	33.2	84	28.9	0	3	248	0.00	30.401 
23:45	33.2	33.2	33.2	84	28.9	0	3	248	0.00	30.406 
23:50	33.1	33.1	33.1	84	28.8	1	4	270	0.00	30.406 
23:55	33.1	33.1	33.1	84	28.8	1	4	248	0.00	30.406 

CoCoRaHS
IN-AL-39
A2 Web Hosting
Creative Commons License
GoDaddy
search engine by freefind advanced

loaded 2018-11-17 14:07:13 • last modified 2010-11-18 10:43:29
Privacy PolicyDisclaimer
• wx.awcolley.com is powered by PmWiki v.2002016 •
• all content (unless otherwise noted) © 2018 A W Colley